sensor_id;sensor_type;location;lat;lon;timestamp;P1;durP1;ratioP1;P2;durP2;ratioP2
11228;SDS011;5671;47.936;8.716;2023-02-14T00:02:22;19.57;;;10.03;;
11228;SDS011;5671;47.936;8.716;2023-02-14T00:04:49;46.33;;;10.07;;
11228;SDS011;5671;47.936;8.716;2023-02-14T00:07:16;16.87;;;9.20;;
11228;SDS011;5671;47.936;8.716;2023-02-14T00:09:42;27.53;;;9.27;;
11228;SDS011;5671;47.936;8.716;2023-02-14T00:12:09;26.93;;;10.13;;
11228;SDS011;5671;47.936;8.716;2023-02-14T00:14:37;11.80;;;9.97;;
11228;SDS011;5671;47.936;8.716;2023-02-14T00:17:25;26.53;;;10.40;;
11228;SDS011;5671;47.936;8.716;2023-02-14T00:19:51;19.03;;;9.83;;
11228;SDS011;5671;47.936;8.716;2023-02-14T00:22:18;20.27;;;9.63;;
11228;SDS011;5671;47.936;8.716;2023-02-14T00:24:45;20.77;;;9.10;;
11228;SDS011;5671;47.936;8.716;2023-02-14T00:27:12;23.20;;;9.50;;
11228;SDS011;5671;47.936;8.716;2023-02-14T00:29:40;20.93;;;9.37;;
11228;SDS011;5671;47.936;8.716;2023-02-14T00:32:07;20.37;;;9.23;;
11228;SDS011;5671;47.936;8.716;2023-02-14T00:34:34;35.27;;;10.77;;
11228;SDS011;5671;47.936;8.716;2023-02-14T00:37:01;52.60;;;10.20;;
11228;SDS011;5671;47.936;8.716;2023-02-14T00:39:28;24.33;;;8.50;;
11228;SDS011;5671;47.936;8.716;2023-02-14T00:41:55;13.70;;;9.57;;
11228;SDS011;5671;47.936;8.716;2023-02-14T00:44:22;18.97;;;9.30;;
11228;SDS011;5671;47.936;8.716;2023-02-14T00:46:50;45.90;;;9.33;;
11228;SDS011;5671;47.936;8.716;2023-02-14T00:49:17;19.33;;;9.87;;
11228;SDS011;5671;47.936;8.716;2023-02-14T00:51:44;35.07;;;9.67;;
11228;SDS011;5671;47.936;8.716;2023-02-14T00:54:11;20.57;;;9.23;;
11228;SDS011;5671;47.936;8.716;2023-02-14T00:56:37;23.17;;;9.90;;
11228;SDS011;5671;47.936;8.716;2023-02-14T00:59:04;37.33;;;9.53;;
11228;SDS011;5671;47.936;8.716;2023-02-14T01:01:31;26.05;;;10.05;;
11228;SDS011;5671;47.936;8.716;2023-02-14T01:03:59;42.70;;;8.93;;
11228;SDS011;5671;47.936;8.716;2023-02-14T01:06:26;43.27;;;10.27;;
11228;SDS011;5671;47.936;8.716;2023-02-14T01:08:53;29.83;;;10.17;;
11228;SDS011;5671;47.936;8.716;2023-02-14T01:11:22;30.40;;;9.13;;
11228;SDS011;5671;47.936;8.716;2023-02-14T01:13:50;20.38;;;8.13;;
11228;SDS011;5671;47.936;8.716;2023-02-14T01:16:20;16.73;;;8.40;;
11228;SDS011;5671;47.936;8.716;2023-02-14T01:18:48;29.27;;;9.37;;
11228;SDS011;5671;47.936;8.716;2023-02-14T01:21:18;32.17;;;10.27;;
11228;SDS011;5671;47.936;8.716;2023-02-14T01:23:47;46.93;;;9.30;;
11228;SDS011;5671;47.936;8.716;2023-02-14T01:26:15;44.97;;;10.87;;
11228;SDS011;5671;47.936;8.716;2023-02-14T01:28:43;44.70;;;11.23;;
11228;SDS011;5671;47.936;8.716;2023-02-14T01:31:11;67.17;;;11.00;;
11228;SDS011;5671;47.936;8.716;2023-02-14T01:33:39;16.70;;;9.67;;
11228;SDS011;5671;47.936;8.716;2023-02-14T01:36:13;20.20;;;9.70;;
11228;SDS011;5671;47.936;8.716;2023-02-14T01:38:42;12.93;;;10.70;;
11228;SDS011;5671;47.936;8.716;2023-02-14T01:41:09;14.57;;;9.83;;
11228;SDS011;5671;47.936;8.716;2023-02-14T01:43:55;29.63;;;10.80;;
11228;SDS011;5671;47.936;8.716;2023-02-14T01:46:24;17.10;;;10.47;;
11228;SDS011;5671;47.936;8.716;2023-02-14T01:48:53;18.20;;;9.90;;
11228;SDS011;5671;47.936;8.716;2023-02-14T01:51:24;15.03;;;10.03;;
11228;SDS011;5671;47.936;8.716;2023-02-14T01:53:52;13.33;;;10.33;;
11228;SDS011;5671;47.936;8.716;2023-02-14T01:56:20;14.87;;;10.10;;
11228;SDS011;5671;47.936;8.716;2023-02-14T01:58:52;10.70;;;9.30;;
11228;SDS011;5671;47.936;8.716;2023-02-14T02:01:23;13.97;;;10.60;;
11228;SDS011;5671;47.936;8.716;2023-02-14T02:03:52;14.73;;;10.00;;
11228;SDS011;5671;47.936;8.716;2023-02-14T02:06:21;15.30;;;10.50;;
11228;SDS011;5671;47.936;8.716;2023-02-14T02:08:55;25.87;;;10.77;;
11228;SDS011;5671;47.936;8.716;2023-02-14T02:11:30;32.93;;;11.07;;
11228;SDS011;5671;47.936;8.716;2023-02-14T02:13:56;20.07;;;10.03;;
11228;SDS011;5671;47.936;8.716;2023-02-14T02:16:36;14.03;;;10.60;;
11228;SDS011;5671;47.936;8.716;2023-02-14T02:22:28;15.53;;;10.13;;
11228;SDS011;5671;47.936;8.716;2023-02-14T02:25:13;16.53;;;10.07;;
11228;SDS011;5671;47.936;8.716;2023-02-14T02:27:57;22.73;;;11.05;;
11228;SDS011;5671;47.936;8.716;2023-02-14T02:30:43;20.20;;;11.30;;
11228;SDS011;5671;47.936;8.716;2023-02-14T02:33:45;17.20;;;11.07;;
11228;SDS011;5671;47.936;8.716;2023-02-14T02:39:41;36.80;;;12.13;;
11228;SDS011;5671;47.936;8.716;2023-02-14T02:42:18;98.75;;;14.48;;
11228;SDS011;5671;47.936;8.716;2023-02-14T02:44:55;31.55;;;12.05;;
11228;SDS011;5671;47.936;8.716;2023-02-14T02:47:29;33.80;;;13.77;;
11228;SDS011;5671;47.936;8.716;2023-02-14T02:50:04;50.60;;;13.70;;
11228;SDS011;5671;47.936;8.716;2023-02-14T02:53:05;16.10;;;11.47;;
11228;SDS011;5671;47.936;8.716;2023-02-14T02:55:39;20.77;;;11.53;;
11228;SDS011;5671;47.936;8.716;2023-02-14T02:58:26;17.33;;;11.80;;
11228;SDS011;5671;47.936;8.716;2023-02-14T03:00:56;14.47;;;11.77;;
11228;SDS011;5671;47.936;8.716;2023-02-14T03:03:25;18.07;;;11.90;;
11228;SDS011;5671;47.936;8.716;2023-02-14T03:06:12;49.60;;;12.70;;
11228;SDS011;5671;47.936;8.716;2023-02-14T03:08:40;16.87;;;11.30;;
11228;SDS011;5671;47.936;8.716;2023-02-14T03:11:08;23.17;;;11.40;;
11228;SDS011;5671;47.936;8.716;2023-02-14T03:13:48;22.93;;;11.90;;
11228;SDS011;5671;47.936;8.716;2023-02-14T03:16:30;26.23;;;12.10;;
11228;SDS011;5671;47.936;8.716;2023-02-14T03:19:07;26.30;;;11.43;;
11228;SDS011;5671;47.936;8.716;2023-02-14T03:21:51;21.20;;;11.00;;
11228;SDS011;5671;47.936;8.716;2023-02-14T03:24:24;92.27;;;13.47;;
11228;SDS011;5671;47.936;8.716;2023-02-14T03:26:56;34.63;;;11.83;;
11228;SDS011;5671;47.936;8.716;2023-02-14T03:29:30;24.93;;;10.70;;
11228;SDS011;5671;47.936;8.716;2023-02-14T03:32:08;37.97;;;12.13;;
11228;SDS011;5671;47.936;8.716;2023-02-14T03:34:42;37.57;;;11.77;;
11228;SDS011;5671;47.936;8.716;2023-02-14T03:37:16;38.67;;;12.27;;
11228;SDS011;5671;47.936;8.716;2023-02-14T03:39:50;41.25;;;12.60;;
11228;SDS011;5671;47.936;8.716;2023-02-14T03:42:25;40.60;;;12.68;;
11228;SDS011;5671;47.936;8.716;2023-02-14T03:44:55;21.27;;;11.80;;
11228;SDS011;5671;47.936;8.716;2023-02-14T03:47:24;28.02;;;11.13;;
11228;SDS011;5671;47.936;8.716;2023-02-14T03:49:54;16.83;;;11.60;;
11228;SDS011;5671;47.936;8.716;2023-02-14T03:52:24;23.00;;;13.20;;
11228;SDS011;5671;47.936;8.716;2023-02-14T03:54:56;17.45;;;12.82;;
11228;SDS011;5671;47.936;8.716;2023-02-14T03:57:24;14.77;;;11.47;;
11228;SDS011;5671;47.936;8.716;2023-02-14T03:59:53;19.80;;;12.03;;
11228;SDS011;5671;47.936;8.716;2023-02-14T04:02:22;17.63;;;11.73;;
11228;SDS011;5671;47.936;8.716;2023-02-14T04:04:54;65.63;;;13.75;;
11228;SDS011;5671;47.936;8.716;2023-02-14T04:07:23;16.33;;;12.13;;
11228;SDS011;5671;47.936;8.716;2023-02-14T04:09:51;14.10;;;11.90;;
11228;SDS011;5671;47.936;8.716;2023-02-14T04:12:19;14.80;;;11.63;;
11228;SDS011;5671;47.936;8.716;2023-02-14T04:14:46;19.53;;;11.80;;
11228;SDS011;5671;47.936;8.716;2023-02-14T04:17:13;32.13;;;12.83;;
11228;SDS011;5671;47.936;8.716;2023-02-14T04:19:57;26.53;;;12.40;;
11228;SDS011;5671;47.936;8.716;2023-02-14T04:22:23;34.40;;;11.60;;
11228;SDS011;5671;47.936;8.716;2023-02-14T04:24:51;14.20;;;11.40;;
11228;SDS011;5671;47.936;8.716;2023-02-14T04:27:19;17.80;;;10.80;;
11228;SDS011;5671;47.936;8.716;2023-02-14T04:29:46;32.53;;;10.77;;
11228;SDS011;5671;47.936;8.716;2023-02-14T04:32:17;17.05;;;11.63;;
11228;SDS011;5671;47.936;8.716;2023-02-14T04:34:46;16.37;;;12.00;;
11228;SDS011;5671;47.936;8.716;2023-02-14T04:37:13;15.93;;;12.00;;
11228;SDS011;5671;47.936;8.716;2023-02-14T04:39:41;13.83;;;11.03;;
11228;SDS011;5671;47.936;8.716;2023-02-14T04:42:08;13.27;;;11.33;;
11228;SDS011;5671;47.936;8.716;2023-02-14T04:44:36;13.17;;;11.37;;
11228;SDS011;5671;47.936;8.716;2023-02-14T04:47:03;18.37;;;12.07;;
11228;SDS011;5671;47.936;8.716;2023-02-14T04:49:31;21.48;;;10.82;;
11228;SDS011;5671;47.936;8.716;2023-02-14T04:51:58;18.23;;;11.17;;
11228;SDS011;5671;47.936;8.716;2023-02-14T04:54:25;13.55;;;10.70;;
11228;SDS011;5671;47.936;8.716;2023-02-14T04:56:52;15.47;;;10.80;;
11228;SDS011;5671;47.936;8.716;2023-02-14T04:59:19;26.98;;;10.65;;
11228;SDS011;5671;47.936;8.716;2023-02-14T05:01:48;14.30;;;10.80;;
11228;SDS011;5671;47.936;8.716;2023-02-14T05:04:15;18.53;;;10.40;;
11228;SDS011;5671;47.936;8.716;2023-02-14T05:06:42;26.57;;;11.07;;
11228;SDS011;5671;47.936;8.716;2023-02-14T05:09:09;24.77;;;10.60;;
11228;SDS011;5671;47.936;8.716;2023-02-14T05:11:36;25.30;;;10.73;;
11228;SDS011;5671;47.936;8.716;2023-02-14T05:14:03;28.23;;;10.65;;
11228;SDS011;5671;47.936;8.716;2023-02-14T05:16:29;14.10;;;10.70;;
11228;SDS011;5671;47.936;8.716;2023-02-14T05:18:58;27.40;;;11.20;;
11228;SDS011;5671;47.936;8.716;2023-02-14T05:21:25;28.63;;;10.68;;
11228;SDS011;5671;47.936;8.716;2023-02-14T05:23:57;34.57;;;11.13;;
11228;SDS011;5671;47.936;8.716;2023-02-14T05:26:24;21.65;;;11.00;;
11228;SDS011;5671;47.936;8.716;2023-02-14T05:28:50;12.40;;;10.00;;
11228;SDS011;5671;47.936;8.716;2023-02-14T05:31:17;13.30;;;11.20;;
11228;SDS011;5671;47.936;8.716;2023-02-14T05:33:44;18.83;;;11.63;;
11228;SDS011;5671;47.936;8.716;2023-02-14T05:36:12;24.10;;;11.57;;
11228;SDS011;5671;47.936;8.716;2023-02-14T05:38:39;25.73;;;11.23;;
11228;SDS011;5671;47.936;8.716;2023-02-14T05:41:06;17.55;;;11.63;;
11228;SDS011;5671;47.936;8.716;2023-02-14T05:43:33;73.10;;;13.30;;
11228;SDS011;5671;47.936;8.716;2023-02-14T05:46:00;16.42;;;11.63;;
11228;SDS011;5671;47.936;8.716;2023-02-14T05:48:26;63.03;;;13.10;;
11228;SDS011;5671;47.936;8.716;2023-02-14T05:50:53;19.40;;;11.98;;
11228;SDS011;5671;47.936;8.716;2023-02-14T05:53:21;33.50;;;12.27;;
11228;SDS011;5671;47.936;8.716;2023-02-14T05:55:48;42.10;;;12.47;;
11228;SDS011;5671;47.936;8.716;2023-02-14T05:58:15;55.53;;;13.45;;
11228;SDS011;5671;47.936;8.716;2023-02-14T06:00:42;21.05;;;12.90;;
11228;SDS011;5671;47.936;8.716;2023-02-14T06:03:08;37.13;;;12.82;;
11228;SDS011;5671;47.936;8.716;2023-02-14T06:05:35;22.03;;;11.37;;
11228;SDS011;5671;47.936;8.716;2023-02-14T06:08:02;18.70;;;11.20;;
11228;SDS011;5671;47.936;8.716;2023-02-14T06:10:30;55.10;;;12.63;;
11228;SDS011;5671;47.936;8.716;2023-02-14T06:12:57;47.63;;;14.07;;
11228;SDS011;5671;47.936;8.716;2023-02-14T06:15:24;20.30;;;12.60;;
11228;SDS011;5671;47.936;8.716;2023-02-14T06:17:51;22.03;;;12.53;;
11228;SDS011;5671;47.936;8.716;2023-02-14T06:20:19;55.07;;;12.97;;
11228;SDS011;5671;47.936;8.716;2023-02-14T06:22:47;56.13;;;12.82;;
11228;SDS011;5671;47.936;8.716;2023-02-14T06:25:14;33.22;;;11.90;;
11228;SDS011;5671;47.936;8.716;2023-02-14T06:27:42;25.53;;;11.20;;
11228;SDS011;5671;47.936;8.716;2023-02-14T06:30:09;32.35;;;11.38;;
11228;SDS011;5671;47.936;8.716;2023-02-14T06:32:37;16.20;;;11.10;;
11228;SDS011;5671;47.936;8.716;2023-02-14T06:35:05;30.48;;;12.00;;
11228;SDS011;5671;47.936;8.716;2023-02-14T06:37:32;17.02;;;10.25;;
11228;SDS011;5671;47.936;8.716;2023-02-14T06:39:59;23.00;;;10.85;;
11228;SDS011;5671;47.936;8.716;2023-02-14T06:42:26;22.00;;;10.95;;
11228;SDS011;5671;47.936;8.716;2023-02-14T06:44:54;57.90;;;11.75;;
11228;SDS011;5671;47.936;8.716;2023-02-14T06:47:21;31.60;;;11.90;;
11228;SDS011;5671;47.936;8.716;2023-02-14T06:49:48;23.57;;;11.70;;
11228;SDS011;5671;47.936;8.716;2023-02-14T06:52:14;14.63;;;11.40;;
11228;SDS011;5671;47.936;8.716;2023-02-14T06:54:41;20.87;;;10.43;;
11228;SDS011;5671;47.936;8.716;2023-02-14T06:57:08;59.25;;;11.98;;
11228;SDS011;5671;47.936;8.716;2023-02-14T06:59:35;21.13;;;11.30;;
11228;SDS011;5671;47.936;8.716;2023-02-14T07:02:03;34.47;;;11.67;;
11228;SDS011;5671;47.936;8.716;2023-02-14T07:04:30;14.43;;;10.73;;
11228;SDS011;5671;47.936;8.716;2023-02-14T07:06:57;66.05;;;12.60;;
11228;SDS011;5671;47.936;8.716;2023-02-14T07:09:25;29.33;;;11.70;;
11228;SDS011;5671;47.936;8.716;2023-02-14T07:11:52;26.07;;;11.77;;
11228;SDS011;5671;47.936;8.716;2023-02-14T07:14:19;14.57;;;11.85;;
11228;SDS011;5671;47.936;8.716;2023-02-14T07:16:46;18.27;;;11.65;;
11228;SDS011;5671;47.936;8.716;2023-02-14T07:19:14;14.45;;;11.23;;
11228;SDS011;5671;47.936;8.716;2023-02-14T07:21:40;62.33;;;14.33;;
11228;SDS011;5671;47.936;8.716;2023-02-14T07:24:07;14.75;;;12.15;;
11228;SDS011;5671;47.936;8.716;2023-02-14T07:26:34;34.67;;;12.38;;
11228;SDS011;5671;47.936;8.716;2023-02-14T07:29:01;14.10;;;11.93;;
11228;SDS011;5671;47.936;8.716;2023-02-14T07:31:28;14.87;;;11.63;;
11228;SDS011;5671;47.936;8.716;2023-02-14T07:33:56;16.65;;;11.23;;
11228;SDS011;5671;47.936;8.716;2023-02-14T07:36:26;12.90;;;10.27;;
11228;SDS011;5671;47.936;8.716;2023-02-14T07:38:54;19.35;;;10.27;;
11228;SDS011;5671;47.936;8.716;2023-02-14T07:41:20;11.57;;;9.40;;
11228;SDS011;5671;47.936;8.716;2023-02-14T07:43:47;10.97;;;9.80;;
11228;SDS011;5671;47.936;8.716;2023-02-14T07:46:14;11.32;;;9.77;;
11228;SDS011;5671;47.936;8.716;2023-02-14T07:48:42;13.27;;;10.45;;
11228;SDS011;5671;47.936;8.716;2023-02-14T07:51:09;14.77;;;11.20;;
11228;SDS011;5671;47.936;8.716;2023-02-14T07:53:37;11.57;;;9.37;;
11228;SDS011;5671;47.936;8.716;2023-02-14T07:56:04;11.02;;;9.82;;
11228;SDS011;5671;47.936;8.716;2023-02-14T07:58:31;12.68;;;10.93;;
11228;SDS011;5671;47.936;8.716;2023-02-14T08:00:58;12.80;;;10.95;;
11228;SDS011;5671;47.936;8.716;2023-02-14T08:03:25;18.07;;;11.03;;
11228;SDS011;5671;47.936;8.716;2023-02-14T08:05:51;15.07;;;12.13;;
11228;SDS011;5671;47.936;8.716;2023-02-14T08:08:22;12.02;;;10.70;;
11228;SDS011;5671;47.936;8.716;2023-02-14T08:10:51;12.30;;;10.20;;
11228;SDS011;5671;47.936;8.716;2023-02-14T08:13:18;12.80;;;10.07;;
11228;SDS011;5671;47.936;8.716;2023-02-14T08:15:45;15.23;;;11.50;;
11228;SDS011;5671;47.936;8.716;2023-02-14T08:18:30;13.48;;;11.18;;
11228;SDS011;5671;47.936;8.716;2023-02-14T08:20:58;12.83;;;10.97;;
11228;SDS011;5671;47.936;8.716;2023-02-14T08:23:25;12.63;;;11.17;;
11228;SDS011;5671;47.936;8.716;2023-02-14T08:25:54;11.95;;;10.30;;
11228;SDS011;5671;47.936;8.716;2023-02-14T08:28:22;12.77;;;11.17;;
11228;SDS011;5671;47.936;8.716;2023-02-14T08:30:50;13.10;;;11.53;;
11228;SDS011;5671;47.936;8.716;2023-02-14T08:33:17;13.30;;;11.07;;
11228;SDS011;5671;47.936;8.716;2023-02-14T08:35:44;12.05;;;10.50;;
11228;SDS011;5671;47.936;8.716;2023-02-14T08:38:11;19.55;;;11.65;;
11228;SDS011;5671;47.936;8.716;2023-02-14T08:40:38;14.70;;;12.53;;
11228;SDS011;5671;47.936;8.716;2023-02-14T08:43:06;11.87;;;10.33;;
11228;SDS011;5671;47.936;8.716;2023-02-14T08:45:33;16.00;;;11.10;;
11228;SDS011;5671;47.936;8.716;2023-02-14T08:48:01;19.17;;;11.53;;
11228;SDS011;5671;47.936;8.716;2023-02-14T08:50:29;14.40;;;12.73;;
11228;SDS011;5671;47.936;8.716;2023-02-14T08:52:56;14.77;;;13.03;;
11228;SDS011;5671;47.936;8.716;2023-02-14T08:55:23;15.67;;;12.77;;
11228;SDS011;5671;47.936;8.716;2023-02-14T08:57:49;14.73;;;12.20;;
11228;SDS011;5671;47.936;8.716;2023-02-14T09:00:18;14.03;;;12.47;;
11228;SDS011;5671;47.936;8.716;2023-02-14T09:02:48;15.90;;;12.53;;
11228;SDS011;5671;47.936;8.716;2023-02-14T09:05:15;14.83;;;12.73;;
11228;SDS011;5671;47.936;8.716;2023-02-14T09:07:43;14.07;;;12.57;;
11228;SDS011;5671;47.936;8.716;2023-02-14T09:10:09;13.53;;;12.00;;
11228;SDS011;5671;47.936;8.716;2023-02-14T09:12:37;15.53;;;12.67;;
11228;SDS011;5671;47.936;8.716;2023-02-14T09:15:04;14.63;;;13.03;;
11228;SDS011;5671;47.936;8.716;2023-02-14T09:17:33;15.93;;;13.57;;
11228;SDS011;5671;47.936;8.716;2023-02-14T09:20:00;14.77;;;13.17;;
11228;SDS011;5671;47.936;8.716;2023-02-14T09:22:27;14.93;;;13.40;;
11228;SDS011;5671;47.936;8.716;2023-02-14T09:24:54;13.80;;;12.30;;
11228;SDS011;5671;47.936;8.716;2023-02-14T09:27:21;14.33;;;12.87;;
11228;SDS011;5671;47.936;8.716;2023-02-14T09:29:48;13.63;;;12.23;;
11228;SDS011;5671;47.936;8.716;2023-02-14T09:32:15;13.57;;;12.17;;
11228;SDS011;5671;47.936;8.716;2023-02-14T09:34:43;14.67;;;13.03;;
11228;SDS011;5671;47.936;8.716;2023-02-14T09:37:10;13.40;;;12.07;;
11228;SDS011;5671;47.936;8.716;2023-02-14T09:39:43;12.97;;;11.67;;
11228;SDS011;5671;47.936;8.716;2023-02-14T09:42:20;12.80;;;11.40;;
11228;SDS011;5671;47.936;8.716;2023-02-14T09:44:58;13.27;;;11.87;;
11228;SDS011;5671;47.936;8.716;2023-02-14T09:47:29;14.17;;;12.57;;
11228;SDS011;5671;47.936;8.716;2023-02-14T09:50:03;16.70;;;12.80;;
11228;SDS011;5671;47.936;8.716;2023-02-14T09:52:37;13.73;;;12.33;;
11228;SDS011;5671;47.936;8.716;2023-02-14T09:55:05;13.50;;;12.13;;
11228;SDS011;5671;47.936;8.716;2023-02-14T09:57:41;16.20;;;12.90;;
11228;SDS011;5671;47.936;8.716;2023-02-14T10:00:16;20.80;;;13.37;;
11228;SDS011;5671;47.936;8.716;2023-02-14T10:02:52;13.77;;;12.33;;
11228;SDS011;5671;47.936;8.716;2023-02-14T10:05:25;14.37;;;12.87;;
11228;SDS011;5671;47.936;8.716;2023-02-14T10:07:55;15.00;;;13.20;;
11228;SDS011;5671;47.936;8.716;2023-02-14T10:10:26;20.07;;;13.77;;
11228;SDS011;5671;47.936;8.716;2023-02-14T10:12:58;13.47;;;12.07;;
11228;SDS011;5671;47.936;8.716;2023-02-14T10:15:31;15.97;;;13.20;;
11228;SDS011;5671;47.936;8.716;2023-02-14T10:18:02;15.60;;;12.57;;
11228;SDS011;5671;47.936;8.716;2023-02-14T10:20:38;18.70;;;12.60;;
11228;SDS011;5671;47.936;8.716;2023-02-14T10:23:16;15.47;;;12.30;;
11228;SDS011;5671;47.936;8.716;2023-02-14T10:25:51;13.57;;;12.17;;
11228;SDS011;5671;47.936;8.716;2023-02-14T10:28:24;18.83;;;12.53;;
11228;SDS011;5671;47.936;8.716;2023-02-14T10:30:59;12.90;;;11.60;;
11228;SDS011;5671;47.936;8.716;2023-02-14T10:33:41;13.07;;;11.60;;
11228;SDS011;5671;47.936;8.716;2023-02-14T10:36:17;13.50;;;12.10;;
11228;SDS011;5671;47.936;8.716;2023-02-14T10:39:07;12.37;;;11.07;;
11228;SDS011;5671;47.936;8.716;2023-02-14T10:41:48;12.50;;;11.30;;
11228;SDS011;5671;47.936;8.716;2023-02-14T10:44:22;12.90;;;11.53;;
11228;SDS011;5671;47.936;8.716;2023-02-14T10:47:02;16.30;;;12.47;;
11228;SDS011;5671;47.936;8.716;2023-02-14T10:49:36;12.30;;;11.10;;
11228;SDS011;5671;47.936;8.716;2023-02-14T10:52:13;23.33;;;12.93;;
11228;SDS011;5671;47.936;8.716;2023-02-14T10:54:49;24.67;;;12.00;;
11228;SDS011;5671;47.936;8.716;2023-02-14T10:57:19;14.07;;;11.33;;
11228;SDS011;5671;47.936;8.716;2023-02-14T10:59:52;13.33;;;11.90;;
11228;SDS011;5671;47.936;8.716;2023-02-14T11:02:24;13.13;;;11.67;;
11228;SDS011;5671;47.936;8.716;2023-02-14T11:04:55;16.03;;;12.17;;
11228;SDS011;5671;47.936;8.716;2023-02-14T11:07:25;13.30;;;12.00;;
11228;SDS011;5671;47.936;8.716;2023-02-14T11:09:51;16.13;;;12.17;;
11228;SDS011;5671;47.936;8.716;2023-02-14T11:12:31;14.17;;;12.67;;
11228;SDS011;5671;47.936;8.716;2023-02-14T11:18:07;14.67;;;12.83;;
11228;SDS011;5671;47.936;8.716;2023-02-14T11:20:41;14.70;;;13.07;;
11228;SDS011;5671;47.936;8.716;2023-02-14T11:23:18;14.30;;;12.80;;
11228;SDS011;5671;47.936;8.716;2023-02-14T11:25:49;15.53;;;12.50;;
11228;SDS011;5671;47.936;8.716;2023-02-14T11:28:19;14.20;;;12.63;;
11228;SDS011;5671;47.936;8.716;2023-02-14T11:30:47;15.77;;;13.80;;
11228;SDS011;5671;47.936;8.716;2023-02-14T11:33:22;13.53;;;12.23;;
11228;SDS011;5671;47.936;8.716;2023-02-14T11:36:04;14.37;;;12.73;;
11228;SDS011;5671;47.936;8.716;2023-02-14T11:38:37;15.70;;;13.57;;
11228;SDS011;5671;47.936;8.716;2023-02-14T11:41:07;13.17;;;11.90;;
11228;SDS011;5671;47.936;8.716;2023-02-14T11:43:37;11.50;;;9.73;;
11228;SDS011;5671;47.936;8.716;2023-02-14T11:46:06;14.37;;;10.47;;
11228;SDS011;5671;47.936;8.716;2023-02-14T11:48:44;10.63;;;9.60;;
11228;SDS011;5671;47.936;8.716;2023-02-14T11:51:30;16.07;;;9.67;;
11228;SDS011;5671;47.936;8.716;2023-02-14T11:54:00;10.20;;;9.20;;
11228;SDS011;5671;47.936;8.716;2023-02-14T11:56:43;17.60;;;9.37;;
11228;SDS011;5671;47.936;8.716;2023-02-14T11:59:23;15.20;;;10.37;;
11228;SDS011;5671;47.936;8.716;2023-02-14T12:01:53;11.20;;;8.83;;
11228;SDS011;5671;47.936;8.716;2023-02-14T12:04:23;9.00;;;8.07;;
11228;SDS011;5671;47.936;8.716;2023-02-14T12:07:08;16.97;;;8.70;;
11228;SDS011;5671;47.936;8.716;2023-02-14T12:09:40;11.83;;;8.50;;
11228;SDS011;5671;47.936;8.716;2023-02-14T12:12:14;9.87;;;8.47;;
11228;SDS011;5671;47.936;8.716;2023-02-14T12:14:43;9.60;;;8.40;;
11228;SDS011;5671;47.936;8.716;2023-02-14T12:17:13;9.53;;;8.33;;
11228;SDS011;5671;47.936;8.716;2023-02-14T12:19:52;10.17;;;9.17;;
11228;SDS011;5671;47.936;8.716;2023-02-14T12:22:24;10.97;;;8.20;;
11228;SDS011;5671;47.936;8.716;2023-02-14T12:24:59;9.53;;;8.03;;
11228;SDS011;5671;47.936;8.716;2023-02-14T12:27:32;9.30;;;8.40;;
11228;SDS011;5671;47.936;8.716;2023-02-14T12:30:11;21.73;;;8.87;;
11228;SDS011;5671;47.936;8.716;2023-02-14T12:32:43;10.20;;;8.40;;
11228;SDS011;5671;47.936;8.716;2023-02-14T12:35:14;11.33;;;9.10;;
11228;SDS011;5671;47.936;8.716;2023-02-14T12:37:49;10.23;;;9.23;;
11228;SDS011;5671;47.936;8.716;2023-02-14T12:40:28;14.23;;;9.17;;
11228;SDS011;5671;47.936;8.716;2023-02-14T12:43:19;10.33;;;9.23;;
11228;SDS011;5671;47.936;8.716;2023-02-14T12:46:01;10.43;;;8.73;;
11228;SDS011;5671;47.936;8.716;2023-02-14T12:48:42;9.87;;;8.87;;
11228;SDS011;5671;47.936;8.716;2023-02-14T12:51:20;12.37;;;9.30;;
11228;SDS011;5671;47.936;8.716;2023-02-14T12:54:01;11.03;;;9.00;;
11228;SDS011;5671;47.936;8.716;2023-02-14T12:56:44;9.00;;;8.13;;
11228;SDS011;5671;47.936;8.716;2023-02-14T12:59:18;12.87;;;9.17;;
11228;SDS011;5671;47.936;8.716;2023-02-14T13:04:55;11.20;;;8.37;;
11228;SDS011;5671;47.936;8.716;2023-02-14T13:07:31;9.13;;;8.23;;
11228;SDS011;5671;47.936;8.716;2023-02-14T13:10:13;11.43;;;8.70;;
11228;SDS011;5671;47.936;8.716;2023-02-14T13:12:48;9.33;;;8.00;;
11228;SDS011;5671;47.936;8.716;2023-02-14T13:15:24;14.80;;;9.33;;
11228;SDS011;5671;47.936;8.716;2023-02-14T13:17:56;8.87;;;7.87;;
11228;SDS011;5671;47.936;8.716;2023-02-14T13:20:34;9.67;;;8.73;;
11228;SDS011;5671;47.936;8.716;2023-02-14T13:23:09;21.00;;;10.03;;
11228;SDS011;5671;47.936;8.716;2023-02-14T13:25:41;14.13;;;10.07;;
11228;SDS011;5671;47.936;8.716;2023-02-14T13:28:15;13.53;;;9.00;;
11228;SDS011;5671;47.936;8.716;2023-02-14T13:30:43;12.70;;;9.53;;
11228;SDS011;5671;47.936;8.716;2023-02-14T13:33:16;14.50;;;8.90;;
11228;SDS011;5671;47.936;8.716;2023-02-14T13:35:50;10.47;;;8.80;;
11228;SDS011;5671;47.936;8.716;2023-02-14T13:38:20;10.20;;;9.20;;
11228;SDS011;5671;47.936;8.716;2023-02-14T13:40:48;14.20;;;9.47;;
11228;SDS011;5671;47.936;8.716;2023-02-14T13:46:15;14.07;;;9.37;;
11228;SDS011;5671;47.936;8.716;2023-02-14T13:48:53;13.33;;;9.63;;
11228;SDS011;5671;47.936;8.716;2023-02-14T13:51:22;11.43;;;10.27;;
11228;SDS011;5671;47.936;8.716;2023-02-14T13:54:18;13.73;;;10.27;;
11228;SDS011;5671;47.936;8.716;2023-02-14T13:56:57;16.90;;;10.57;;
11228;SDS011;5671;47.936;8.716;2023-02-14T13:59:27;12.47;;;10.70;;
11228;SDS011;5671;47.936;8.716;2023-02-14T14:02:01;12.63;;;10.37;;
11228;SDS011;5671;47.936;8.716;2023-02-14T14:04:57;10.50;;;9.50;;
11228;SDS011;5671;47.936;8.716;2023-02-14T14:07:24;10.47;;;9.37;;
11228;SDS011;5671;47.936;8.716;2023-02-14T14:09:56;10.73;;;9.60;;
11228;SDS011;5671;47.936;8.716;2023-02-14T14:12:41;13.43;;;10.67;;
11228;SDS011;5671;47.936;8.716;2023-02-14T14:15:12;11.60;;;10.20;;
11228;SDS011;5671;47.936;8.716;2023-02-14T14:17:42;10.83;;;9.83;;
11228;SDS011;5671;47.936;8.716;2023-02-14T14:20:29;14.17;;;10.37;;
11228;SDS011;5671;47.936;8.716;2023-02-14T14:23:26;12.60;;;10.87;;
11228;SDS011;5671;47.936;8.716;2023-02-14T14:25:56;12.00;;;9.83;;
11228;SDS011;5671;47.936;8.716;2023-02-14T14:28:23;10.70;;;9.63;;
11228;SDS011;5671;47.936;8.716;2023-02-14T14:30:53;14.17;;;11.77;;
11228;SDS011;5671;47.936;8.716;2023-02-14T14:33:24;14.97;;;11.93;;
11228;SDS011;5671;47.936;8.716;2023-02-14T14:35:54;13.07;;;11.97;;
11228;SDS011;5671;47.936;8.716;2023-02-14T14:38:22;12.27;;;10.97;;
11228;SDS011;5671;47.936;8.716;2023-02-14T14:40:49;15.40;;;10.87;;
11228;SDS011;5671;47.936;8.716;2023-02-14T14:43:18;11.97;;;10.77;;
11228;SDS011;5671;47.936;8.716;2023-02-14T14:45:50;12.27;;;11.17;;
11228;SDS011;5671;47.936;8.716;2023-02-14T14:48:25;12.77;;;10.73;;
11228;SDS011;5671;47.936;8.716;2023-02-14T14:50:55;13.07;;;11.77;;
11228;SDS011;5671;47.936;8.716;2023-02-14T14:53:23;13.60;;;12.27;;
11228;SDS011;5671;47.936;8.716;2023-02-14T14:55:53;13.80;;;11.03;;
11228;SDS011;5671;47.936;8.716;2023-02-14T14:58:31;13.87;;;12.37;;
11228;SDS011;5671;47.936;8.716;2023-02-14T15:01:02;13.00;;;11.80;;
11228;SDS011;5671;47.936;8.716;2023-02-14T15:03:30;13.20;;;11.77;;
11228;SDS011;5671;47.936;8.716;2023-02-14T15:06:07;18.50;;;12.17;;
11228;SDS011;5671;47.936;8.716;2023-02-14T15:08:40;22.10;;;13.57;;
11228;SDS011;5671;47.936;8.716;2023-02-14T15:11:08;20.77;;;12.80;;
11228;SDS011;5671;47.936;8.716;2023-02-14T15:13:38;15.33;;;12.43;;
11228;SDS011;5671;47.936;8.716;2023-02-14T15:16:23;22.00;;;13.20;;
11228;SDS011;5671;47.936;8.716;2023-02-14T15:18:54;26.07;;;13.80;;